Marietta, Washington
Current Conditions -  °F | °C
As of 1:53 AM on Thursday 23 Oct 2014 (Local Time) from KBLI Reporting Station
Broken Clouds Broken Clouds  
Wind Chill: 54°   Ceiling: 3800
Heat Index: 54°   Visibility: 10mi
Dew Point: 48°   Wind: 6mph
Humidity: 80%   Direction: 180°S
Pressure: 29.66"   Gusts: NA
Location:  48.7531°N, 122.502°W
Report Text: KBLI 230853Z AUTO 18005KT 10SM BKN038 BKN075 12/09 A2966 RMK AO2 RAE20 SLP052 P0000 60002 T01220089 51025
Loading
Personal Weather Stations






























Interactive Weather Map
Tropical Storm Tracking
New forecast layout! Learn more

10-Day Weather Forecast

Advertisements
Track Severe Weather on mobile